sensor_id;sensor_type;location;lat;lon;timestamp;P1;durP1;ratioP1;P2;durP2;ratioP2
40637;SDS011;26336;44.696;10.622;2023-08-12T00:03:00;5.32;;;3.28;;
40637;SDS011;26336;44.696;10.622;2023-08-12T00:06:07;4.18;;;3.05;;
40637;SDS011;26336;44.696;10.622;2023-08-12T00:09:15;7.18;;;3.05;;
40637;SDS011;26336;44.696;10.622;2023-08-12T00:12:19;3.40;;;2.15;;
40637;SDS011;26336;44.696;10.622;2023-08-12T00:15:22;3.10;;;2.58;;
40637;SDS011;26336;44.696;10.622;2023-08-12T00:18:26;6.85;;;2.90;;
40637;SDS011;26336;44.696;10.622;2023-08-12T00:21:31;4.63;;;2.70;;
40637;SDS011;26336;44.696;10.622;2023-08-12T00:24:34;3.83;;;2.83;;
40637;SDS011;26336;44.696;10.622;2023-08-12T00:27:38;3.47;;;2.80;;
40637;SDS011;26336;44.696;10.622;2023-08-12T00:30:42;5.22;;;2.92;;
40637;SDS011;26336;44.696;10.622;2023-08-12T00:33:46;4.90;;;3.40;;
40637;SDS011;26336;44.696;10.622;2023-08-12T00:36:50;3.42;;;3.08;;
40637;SDS011;26336;44.696;10.622;2023-08-12T00:39:54;5.78;;;2.90;;
40637;SDS011;26336;44.696;10.622;2023-08-12T00:43:00;5.60;;;3.10;;
40637;SDS011;26336;44.696;10.622;2023-08-12T00:46:04;3.88;;;2.65;;
40637;SDS011;26336;44.696;10.622;2023-08-12T00:49:09;4.28;;;2.83;;
40637;SDS011;26336;44.696;10.622;2023-08-12T00:52:14;3.92;;;2.85;;
40637;SDS011;26336;44.696;10.622;2023-08-12T00:55:20;5.53;;;3.10;;
40637;SDS011;26336;44.696;10.622;2023-08-12T00:58:24;5.05;;;3.22;;
40637;SDS011;26336;44.696;10.622;2023-08-12T01:01:28;6.78;;;3.85;;
40637;SDS011;26336;44.696;10.622;2023-08-12T01:04:33;4.28;;;3.60;;
40637;SDS011;26336;44.696;10.622;2023-08-12T01:07:38;3.72;;;3.42;;
40637;SDS011;26336;44.696;10.622;2023-08-12T01:10:47;3.55;;;3.25;;
40637;SDS011;26336;44.696;10.622;2023-08-12T01:13:57;4.07;;;3.47;;
40637;SDS011;26336;44.696;10.622;2023-08-12T01:17:08;5.10;;;3.25;;
40637;SDS011;26336;44.696;10.622;2023-08-12T01:20:14;3.63;;;3.33;;
40637;SDS011;26336;44.696;10.622;2023-08-12T01:23:19;3.95;;;3.60;;
40637;SDS011;26336;44.696;10.622;2023-08-12T01:26:23;3.70;;;3.40;;
40637;SDS011;26336;44.696;10.622;2023-08-12T01:29:27;3.53;;;3.22;;
40637;SDS011;26336;44.696;10.622;2023-08-12T01:32:47;5.00;;;3.30;;
40637;SDS011;26336;44.696;10.622;2023-08-12T01:36:09;4.97;;;3.50;;
40637;SDS011;26336;44.696;10.622;2023-08-12T01:39:19;4.75;;;3.38;;
40637;SDS011;26336;44.696;10.622;2023-08-12T01:42:24;4.63;;;3.00;;
40637;SDS011;26336;44.696;10.622;2023-08-12T01:45:31;4.45;;;3.55;;
40637;SDS011;26336;44.696;10.622;2023-08-12T01:48:38;4.10;;;3.70;;
40637;SDS011;26336;44.696;10.622;2023-08-12T01:51:42;4.07;;;3.47;;
40637;SDS011;26336;44.696;10.622;2023-08-12T01:54:47;3.75;;;3.45;;
40637;SDS011;26336;44.696;10.622;2023-08-12T01:57:51;4.80;;;3.47;;
40637;SDS011;26336;44.696;10.622;2023-08-12T02:00:55;3.63;;;3.15;;
40637;SDS011;26336;44.696;10.622;2023-08-12T02:03:59;3.95;;;3.55;;
40637;SDS011;26336;44.696;10.622;2023-08-12T02:07:03;5.03;;;4.05;;
40637;SDS011;26336;44.696;10.622;2023-08-12T02:10:07;4.55;;;3.90;;
40637;SDS011;26336;44.696;10.622;2023-08-12T02:13:11;8.00;;;4.45;;
40637;SDS011;26336;44.696;10.622;2023-08-12T02:16:15;4.15;;;3.75;;
40637;SDS011;26336;44.696;10.622;2023-08-12T02:19:20;5.68;;;3.97;;
40637;SDS011;26336;44.696;10.622;2023-08-12T02:22:24;4.63;;;3.30;;
40637;SDS011;26336;44.696;10.622;2023-08-12T02:25:28;4.60;;;3.75;;
40637;SDS011;26336;44.696;10.622;2023-08-12T02:28:32;5.07;;;3.85;;
40637;SDS011;26336;44.696;10.622;2023-08-12T02:31:35;4.38;;;3.97;;
40637;SDS011;26336;44.696;10.622;2023-08-12T02:34:39;3.78;;;3.47;;
40637;SDS011;26336;44.696;10.622;2023-08-12T02:37:50;4.20;;;3.67;;
40637;SDS011;26336;44.696;10.622;2023-08-12T02:40:54;5.20;;;3.30;;
40637;SDS011;26336;44.696;10.622;2023-08-12T02:43:58;3.92;;;3.10;;
40637;SDS011;26336;44.696;10.622;2023-08-12T02:47:02;5.35;;;3.90;;
40637;SDS011;26336;44.696;10.622;2023-08-12T02:50:06;5.20;;;3.80;;
40637;SDS011;26336;44.696;10.622;2023-08-12T02:53:10;6.38;;;4.00;;
40637;SDS011;26336;44.696;10.622;2023-08-12T02:56:14;5.18;;;3.50;;
40637;SDS011;26336;44.696;10.622;2023-08-12T02:59:18;4.43;;;3.95;;
40637;SDS011;26336;44.696;10.622;2023-08-12T03:02:22;4.63;;;3.92;;
40637;SDS011;26336;44.696;10.622;2023-08-12T03:05:26;7.07;;;4.13;;
40637;SDS011;26336;44.696;10.622;2023-08-12T03:08:30;5.63;;;3.80;;
40637;SDS011;26336;44.696;10.622;2023-08-12T03:11:34;4.57;;;3.88;;
40637;SDS011;26336;44.696;10.622;2023-08-12T03:14:41;4.72;;;4.00;;
40637;SDS011;26336;44.696;10.622;2023-08-12T03:17:46;5.03;;;3.60;;
40637;SDS011;26336;44.696;10.622;2023-08-12T03:20:50;5.97;;;3.70;;
40637;SDS011;26336;44.696;10.622;2023-08-12T03:23:55;5.22;;;3.80;;
40637;SDS011;26336;44.696;10.622;2023-08-12T03:26:59;5.65;;;4.00;;
40637;SDS011;26336;44.696;10.622;2023-08-12T03:30:04;4.78;;;3.80;;
40637;SDS011;26336;44.696;10.622;2023-08-12T03:33:09;6.72;;;4.22;;
40637;SDS011;26336;44.696;10.622;2023-08-12T03:36:14;5.30;;;4.80;;
40637;SDS011;26336;44.696;10.622;2023-08-12T03:39:18;7.07;;;5.47;;
40637;SDS011;26336;44.696;10.622;2023-08-12T03:42:22;5.88;;;5.38;;
40637;SDS011;26336;44.696;10.622;2023-08-12T03:45:27;5.88;;;5.38;;
40637;SDS011;26336;44.696;10.622;2023-08-12T03:48:31;8.25;;;6.00;;
40637;SDS011;26336;44.696;10.622;2023-08-12T03:51:36;6.75;;;5.68;;
40637;SDS011;26336;44.696;10.622;2023-08-12T03:54:40;6.40;;;5.80;;
40637;SDS011;26336;44.696;10.622;2023-08-12T03:57:44;7.07;;;6.38;;
40637;SDS011;26336;44.696;10.622;2023-08-12T04:00:49;7.25;;;6.65;;
40637;SDS011;26336;44.696;10.622;2023-08-12T04:03:54;6.95;;;6.25;;
40637;SDS011;26336;44.696;10.622;2023-08-12T04:06:58;7.57;;;6.95;;
40637;SDS011;26336;44.696;10.622;2023-08-12T04:10:02;8.38;;;6.22;;
40637;SDS011;26336;44.696;10.622;2023-08-12T04:13:06;6.90;;;6.10;;
40637;SDS011;26336;44.696;10.622;2023-08-12T04:16:10;7.72;;;6.93;;
40637;SDS011;26336;44.696;10.622;2023-08-12T04:19:14;6.28;;;5.72;;
40637;SDS011;26336;44.696;10.622;2023-08-12T04:22:18;7.15;;;6.38;;
40637;SDS011;26336;44.696;10.622;2023-08-12T04:25:22;6.40;;;5.80;;
40637;SDS011;26336;44.696;10.622;2023-08-12T04:28:26;6.28;;;5.70;;
40637;SDS011;26336;44.696;10.622;2023-08-12T04:31:30;6.57;;;5.45;;
40637;SDS011;26336;44.696;10.622;2023-08-12T04:34:34;7.88;;;6.65;;
40637;SDS011;26336;44.696;10.622;2023-08-12T04:37:38;6.47;;;5.82;;
40637;SDS011;26336;44.696;10.622;2023-08-12T04:40:43;9.73;;;6.50;;
40637;SDS011;26336;44.696;10.622;2023-08-12T04:43:47;6.03;;;5.43;;
40637;SDS011;26336;44.696;10.622;2023-08-12T04:46:51;6.95;;;6.00;;
40637;SDS011;26336;44.696;10.622;2023-08-12T04:49:57;8.82;;;6.30;;
40637;SDS011;26336;44.696;10.622;2023-08-12T04:53:01;9.10;;;6.50;;
40637;SDS011;26336;44.696;10.622;2023-08-12T04:56:05;9.88;;;6.30;;
40637;SDS011;26336;44.696;10.622;2023-08-12T04:59:10;6.95;;;5.88;;
40637;SDS011;26336;44.696;10.622;2023-08-12T05:02:14;7.05;;;6.45;;
40637;SDS011;26336;44.696;10.622;2023-08-12T05:05:18;7.75;;;7.05;;
40637;SDS011;26336;44.696;10.622;2023-08-12T05:08:22;8.02;;;6.47;;
40637;SDS011;26336;44.696;10.622;2023-08-12T05:11:28;7.00;;;6.30;;
40637;SDS011;26336;44.696;10.622;2023-08-12T05:14:32;7.40;;;6.70;;
40637;SDS011;26336;44.696;10.622;2023-08-12T05:17:36;8.98;;;7.18;;
40637;SDS011;26336;44.696;10.622;2023-08-12T05:20:41;9.15;;;6.50;;
40637;SDS011;26336;44.696;10.622;2023-08-12T05:23:45;7.55;;;6.68;;
40637;SDS011;26336;44.696;10.622;2023-08-12T05:26:49;10.75;;;7.35;;
40637;SDS011;26336;44.696;10.622;2023-08-12T05:29:53;8.73;;;7.25;;
40637;SDS011;26336;44.696;10.622;2023-08-12T05:32:57;7.82;;;6.82;;
40637;SDS011;26336;44.696;10.622;2023-08-12T05:36:02;7.85;;;6.53;;
40637;SDS011;26336;44.696;10.622;2023-08-12T05:39:06;8.98;;;7.63;;
40637;SDS011;26336;44.696;10.622;2023-08-12T05:42:10;7.03;;;5.93;;
40637;SDS011;26336;44.696;10.622;2023-08-12T05:45:14;7.65;;;5.88;;
40637;SDS011;26336;44.696;10.622;2023-08-12T05:48:18;8.00;;;6.40;;
40637;SDS011;26336;44.696;10.622;2023-08-12T05:51:22;6.60;;;5.75;;
40637;SDS011;26336;44.696;10.622;2023-08-12T05:54:26;6.22;;;5.63;;
40637;SDS011;26336;44.696;10.622;2023-08-12T05:57:30;6.22;;;5.63;;
40637;SDS011;26336;44.696;10.622;2023-08-12T06:00:34;6.80;;;5.63;;
40637;SDS011;26336;44.696;10.622;2023-08-12T06:03:38;8.10;;;5.95;;
40637;SDS011;26336;44.696;10.622;2023-08-12T06:06:42;13.20;;;6.93;;
40637;SDS011;26336;44.696;10.622;2023-08-12T06:09:46;8.43;;;6.15;;
40637;SDS011;26336;44.696;10.622;2023-08-12T06:12:50;7.75;;;5.90;;
40637;SDS011;26336;44.696;10.622;2023-08-12T06:15:54;9.80;;;6.35;;
40637;SDS011;26336;44.696;10.622;2023-08-12T06:18:59;8.00;;;6.30;;
40637;SDS011;26336;44.696;10.622;2023-08-12T06:22:03;7.65;;;6.20;;
40637;SDS011;26336;44.696;10.622;2023-08-12T06:25:07;5.82;;;5.22;;
40637;SDS011;26336;44.696;10.622;2023-08-12T06:28:11;7.95;;;5.18;;
40637;SDS011;26336;44.696;10.622;2023-08-12T06:31:15;6.32;;;5.72;;
40637;SDS011;26336;44.696;10.622;2023-08-12T06:34:19;6.38;;;5.13;;
40637;SDS011;26336;44.696;10.622;2023-08-12T06:37:23;5.78;;;5.00;;
40637;SDS011;26336;44.696;10.622;2023-08-12T06:40:27;6.95;;;5.28;;
40637;SDS011;26336;44.696;10.622;2023-08-12T06:43:31;5.63;;;5.13;;
40637;SDS011;26336;44.696;10.622;2023-08-12T06:46:35;6.95;;;4.88;;
40637;SDS011;26336;44.696;10.622;2023-08-12T06:49:39;6.88;;;5.60;;
40637;SDS011;26336;44.696;10.622;2023-08-12T06:52:43;8.25;;;5.68;;
40637;SDS011;26336;44.696;10.622;2023-08-12T06:55:47;7.03;;;6.30;;
40637;SDS011;26336;44.696;10.622;2023-08-12T06:58:51;6.20;;;5.57;;
40637;SDS011;26336;44.696;10.622;2023-08-12T07:01:55;7.80;;;6.97;;
40637;SDS011;26336;44.696;10.622;2023-08-12T07:04:59;7.22;;;5.60;;
40637;SDS011;26336;44.696;10.622;2023-08-12T07:08:03;9.35;;;6.68;;
40637;SDS011;26336;44.696;10.622;2023-08-12T07:11:08;7.30;;;6.55;;
40637;SDS011;26336;44.696;10.622;2023-08-12T07:14:12;8.55;;;5.78;;
40637;SDS011;26336;44.696;10.622;2023-08-12T07:17:19;6.78;;;5.97;;
40637;SDS011;26336;44.696;10.622;2023-08-12T07:20:26;6.65;;;6.00;;
40637;SDS011;26336;44.696;10.622;2023-08-12T07:23:30;7.78;;;6.53;;
40637;SDS011;26336;44.696;10.622;2023-08-12T07:26:34;9.63;;;8.70;;
40637;SDS011;26336;44.696;10.622;2023-08-12T07:29:39;12.48;;;7.38;;
40637;SDS011;26336;44.696;10.622;2023-08-12T07:32:43;6.47;;;5.75;;
40637;SDS011;26336;44.696;10.622;2023-08-12T07:35:47;6.88;;;5.82;;
40637;SDS011;26336;44.696;10.622;2023-08-12T07:38:51;6.80;;;6.20;;
40637;SDS011;26336;44.696;10.622;2023-08-12T07:41:56;8.73;;;6.43;;
40637;SDS011;26336;44.696;10.622;2023-08-12T07:45:00;6.57;;;5.88;;
40637;SDS011;26336;44.696;10.622;2023-08-12T07:48:04;7.53;;;5.85;;
40637;SDS011;26336;44.696;10.622;2023-08-12T07:51:10;10.63;;;7.22;;
40637;SDS011;26336;44.696;10.622;2023-08-12T07:54:14;6.78;;;6.07;;
40637;SDS011;26336;44.696;10.622;2023-08-12T07:57:24;6.20;;;5.13;;
40637;SDS011;26336;44.696;10.622;2023-08-12T08:00:28;9.52;;;7.18;;
40637;SDS011;26336;44.696;10.622;2023-08-12T08:03:38;8.88;;;7.93;;
40637;SDS011;26336;44.696;10.622;2023-08-12T08:06:48;8.23;;;6.72;;
40637;SDS011;26336;44.696;10.622;2023-08-12T08:09:52;9.18;;;7.22;;
40637;SDS011;26336;44.696;10.622;2023-08-12T08:12:56;10.18;;;9.13;;
40637;SDS011;26336;44.696;10.622;2023-08-12T08:16:03;8.60;;;7.53;;
40637;SDS011;26336;44.696;10.622;2023-08-12T08:19:09;10.90;;;9.30;;
40637;SDS011;26336;44.696;10.622;2023-08-12T08:22:20;7.55;;;6.85;;
40637;SDS011;26336;44.696;10.622;2023-08-12T08:25:48;8.77;;;7.88;;
40637;SDS011;26336;44.696;10.622;2023-08-12T08:29:02;9.88;;;7.78;;
40637;SDS011;26336;44.696;10.622;2023-08-12T08:32:09;9.45;;;7.80;;
40637;SDS011;26336;44.696;10.622;2023-08-12T08:35:16;8.43;;;7.65;;
40637;SDS011;26336;44.696;10.622;2023-08-12T08:38:31;6.85;;;6.25;;
40637;SDS011;26336;44.696;10.622;2023-08-12T08:41:37;6.88;;;5.95;;
40637;SDS011;26336;44.696;10.622;2023-08-12T08:45:00;7.65;;;6.78;;
40637;SDS011;26336;44.696;10.622;2023-08-12T08:48:11;8.13;;;6.68;;
40637;SDS011;26336;44.696;10.622;2023-08-12T08:51:19;9.80;;;6.68;;
40637;SDS011;26336;44.696;10.622;2023-08-12T08:54:24;6.50;;;5.90;;
40637;SDS011;26336;44.696;10.622;2023-08-12T08:57:32;7.22;;;5.88;;
40637;SDS011;26336;44.696;10.622;2023-08-12T09:00:37;6.63;;;5.57;;
40637;SDS011;26336;44.696;10.622;2023-08-12T09:03:42;5.88;;;5.13;;
40637;SDS011;26336;44.696;10.622;2023-08-12T09:07:05;6.07;;;5.47;;
40637;SDS011;26336;44.696;10.622;2023-08-12T09:10:17;8.82;;;6.18;;
40637;SDS011;26336;44.696;10.622;2023-08-12T09:13:24;6.35;;;5.35;;
40637;SDS011;26336;44.696;10.622;2023-08-12T09:16:28;10.43;;;5.32;;
40637;SDS011;26336;44.696;10.622;2023-08-12T09:19:32;4.80;;;4.32;;
40637;SDS011;26336;44.696;10.622;2023-08-12T09:22:42;6.22;;;5.30;;
40637;SDS011;26336;44.696;10.622;2023-08-12T09:25:47;5.85;;;5.28;;
40637;SDS011;26336;44.696;10.622;2023-08-12T09:28:52;6.28;;;4.68;;
40637;SDS011;26336;44.696;10.622;2023-08-12T09:32:04;4.20;;;3.72;;
40637;SDS011;26336;44.696;10.622;2023-08-12T09:35:19;4.18;;;3.50;;
40637;SDS011;26336;44.696;10.622;2023-08-12T09:38:23;4.97;;;3.85;;
40637;SDS011;26336;44.696;10.622;2023-08-12T09:41:29;4.50;;;4.10;;
40637;SDS011;26336;44.696;10.622;2023-08-12T09:44:36;4.50;;;4.10;;
40637;SDS011;26336;44.696;10.622;2023-08-12T09:47:44;6.25;;;4.15;;
40637;SDS011;26336;44.696;10.622;2023-08-12T09:50:48;4.25;;;3.85;;
40637;SDS011;26336;44.696;10.622;2023-08-12T09:53:53;8.57;;;5.15;;
40637;SDS011;26336;44.696;10.622;2023-08-12T09:56:59;4.15;;;3.75;;
40637;SDS011;26336;44.696;10.622;2023-08-12T10:00:05;4.07;;;3.63;;
40637;SDS011;26336;44.696;10.622;2023-08-12T10:03:15;4.82;;;4.32;;
40637;SDS011;26336;44.696;10.622;2023-08-12T10:06:23;7.53;;;4.00;;
40637;SDS011;26336;44.696;10.622;2023-08-12T10:09:28;4.72;;;3.47;;
40637;SDS011;26336;44.696;10.622;2023-08-12T10:12:33;3.90;;;3.60;;
40637;SDS011;26336;44.696;10.622;2023-08-12T10:15:39;3.75;;;3.03;;
40637;SDS011;26336;44.696;10.622;2023-08-12T10:18:45;7.45;;;3.83;;
40637;SDS011;26336;44.696;10.622;2023-08-12T10:21:54;3.10;;;2.80;;
40637;SDS011;26336;44.696;10.622;2023-08-12T10:25:02;4.50;;;3.92;;
40637;SDS011;26336;44.696;10.622;2023-08-12T10:31:45;6.70;;;3.92;;
40637;SDS011;26336;44.696;10.622;2023-08-12T10:34:54;5.53;;;3.40;;
40637;SDS011;26336;44.696;10.622;2023-08-12T10:38:00;4.13;;;2.53;;
40637;SDS011;26336;44.696;10.622;2023-08-12T10:41:18;5.68;;;3.55;;
40637;SDS011;26336;44.696;10.622;2023-08-12T10:45:07;8.25;;;3.92;;
40637;SDS011;26336;44.696;10.622;2023-08-12T10:51:14;7.25;;;3.70;;
40637;SDS011;26336;44.696;10.622;2023-08-12T10:57:42;4.47;;;2.80;;
40637;SDS011;26336;44.696;10.622;2023-08-12T11:01:16;4.07;;;2.80;;
40637;SDS011;26336;44.696;10.622;2023-08-12T11:04:37;3.55;;;3.03;;
40637;SDS011;26336;44.696;10.622;2023-08-12T11:07:42;3.58;;;3.10;;
40637;SDS011;26336;44.696;10.622;2023-08-12T11:10:57;4.05;;;2.63;;
40637;SDS011;26336;44.696;10.622;2023-08-12T11:19:30;4.18;;;3.08;;
40637;SDS011;26336;44.696;10.622;2023-08-12T11:22:38;3.08;;;2.72;;
40637;SDS011;26336;44.696;10.622;2023-08-12T11:25:44;6.32;;;3.25;;
40637;SDS011;26336;44.696;10.622;2023-08-12T11:28:50;3.90;;;2.95;;
40637;SDS011;26336;44.696;10.622;2023-08-12T11:31:59;4.82;;;2.70;;
40637;SDS011;26336;44.696;10.622;2023-08-12T11:35:06;2.75;;;2.47;;
40637;SDS011;26336;44.696;10.622;2023-08-12T11:38:15;3.60;;;3.28;;
40637;SDS011;26336;44.696;10.622;2023-08-12T11:41:28;6.28;;;3.05;;
40637;SDS011;26336;44.696;10.622;2023-08-12T11:44:33;3.53;;;2.85;;
40637;SDS011;26336;44.696;10.622;2023-08-12T11:47:38;4.18;;;2.85;;
40637;SDS011;26336;44.696;10.622;2023-08-12T11:50:44;4.40;;;3.20;;
40637;SDS011;26336;44.696;10.622;2023-08-12T11:53:48;4.63;;;2.85;;
40637;SDS011;26336;44.696;10.622;2023-08-12T11:56:52;3.50;;;2.50;;
40637;SDS011;26336;44.696;10.622;2023-08-12T12:00:03;5.15;;;2.83;;
40637;SDS011;26336;44.696;10.622;2023-08-12T12:03:19;5.20;;;2.88;;
40637;SDS011;26336;44.696;10.622;2023-08-12T12:06:33;3.15;;;2.83;;
40637;SDS011;26336;44.696;10.622;2023-08-12T12:09:42;2.93;;;2.50;;
40637;SDS011;26336;44.696;10.622;2023-08-12T12:12:50;5.22;;;3.25;;
40637;SDS011;26336;44.696;10.622;2023-08-12T12:16:00;4.13;;;2.60;;
40637;SDS011;26336;44.696;10.622;2023-08-12T12:19:04;2.88;;;2.30;;
40637;SDS011;26336;44.696;10.622;2023-08-12T12:22:17;3.50;;;2.80;;
40637;SDS011;26336;44.696;10.622;2023-08-12T12:26:13;4.03;;;2.38;;
40637;SDS011;26336;44.696;10.622;2023-08-12T12:29:21;4.95;;;2.92;;
40637;SDS011;26336;44.696;10.622;2023-08-12T12:36:49;3.20;;;2.70;;
40637;SDS011;26336;44.696;10.622;2023-08-12T12:40:19;3.03;;;2.58;;
40637;SDS011;26336;44.696;10.622;2023-08-12T12:43:27;4.82;;;3.03;;
40637;SDS011;26336;44.696;10.622;2023-08-12T12:51:07;6.43;;;2.35;;
40637;SDS011;26336;44.696;10.622;2023-08-12T12:54:15;3.05;;;2.63;;
40637;SDS011;26336;44.696;10.622;2023-08-12T12:57:48;4.70;;;2.47;;
40637;SDS011;26336;44.696;10.622;2023-08-12T13:00:53;3.08;;;2.40;;
40637;SDS011;26336;44.696;10.622;2023-08-12T13:04:00;3.75;;;2.47;;
40637;SDS011;26336;44.696;10.622;2023-08-12T13:07:16;3.38;;;2.38;;
40637;SDS011;26336;44.696;10.622;2023-08-12T13:14:52;3.50;;;2.75;;
40637;SDS011;26336;44.696;10.622;2023-08-12T13:26:17;4.43;;;2.75;;
40637;SDS011;26336;44.696;10.622;2023-08-12T13:30:45;3.78;;;2.45;;
40637;SDS011;26336;44.696;10.622;2023-08-12T13:33:50;4.18;;;2.53;;
40637;SDS011;26336;44.696;10.622;2023-08-12T13:36:54;5.07;;;2.55;;
40637;SDS011;26336;44.696;10.622;2023-08-12T13:39:58;4.03;;;2.53;;
40637;SDS011;26336;44.696;10.622;2023-08-12T13:43:03;8.52;;;2.85;;
40637;SDS011;26336;44.696;10.622;2023-08-12T13:46:13;3.28;;;2.60;;
40637;SDS011;26336;44.696;10.622;2023-08-12T13:49:24;6.78;;;2.72;;
40637;SDS011;26336;44.696;10.622;2023-08-12T13:52:42;2.50;;;2.30;;
40637;SDS011;26336;44.696;10.622;2023-08-12T13:56:20;5.30;;;2.40;;
40637;SDS011;26336;44.696;10.622;2023-08-12T13:59:31;4.35;;;2.50;;
40637;SDS011;26336;44.696;10.622;2023-08-12T14:02:57;2.83;;;2.53;;
40637;SDS011;26336;44.696;10.622;2023-08-12T14:06:10;4.30;;;2.88;;
40637;SDS011;26336;44.696;10.622;2023-08-12T14:12:55;2.97;;;2.30;;
40637;SDS011;26336;44.696;10.622;2023-08-12T14:15:59;4.10;;;2.40;;
40637;SDS011;26336;44.696;10.622;2023-08-12T14:19:08;4.28;;;2.42;;
40637;SDS011;26336;44.696;10.622;2023-08-12T14:22:22;2.80;;;2.50;;
40637;SDS011;26336;44.696;10.622;2023-08-12T14:25:27;4.35;;;2.40;;
40637;SDS011;26336;44.696;10.622;2023-08-12T14:28:41;4.93;;;2.40;;
40637;SDS011;26336;44.696;10.622;2023-08-12T14:31:45;5.53;;;2.63;;
40637;SDS011;26336;44.696;10.622;2023-08-12T14:34:52;4.65;;;2.60;;
40637;SDS011;26336;44.696;10.622;2023-08-12T14:38:00;4.45;;;2.08;;
40637;SDS011;26336;44.696;10.622;2023-08-12T14:44:50;2.85;;;2.55;;
40637;SDS011;26336;44.696;10.622;2023-08-12T14:48:20;4.68;;;2.63;;
40637;SDS011;26336;44.696;10.622;2023-08-12T14:51:27;3.50;;;2.60;;
40637;SDS011;26336;44.696;10.622;2023-08-12T14:54:37;3.70;;;2.67;;
40637;SDS011;26336;44.696;10.622;2023-08-12T14:57:47;3.60;;;2.78;;
40637;SDS011;26336;44.696;10.622;2023-08-12T15:00:51;3.38;;;2.38;;
40637;SDS011;26336;44.696;10.622;2023-08-12T15:03:55;5.68;;;2.30;;
40637;SDS011;26336;44.696;10.622;2023-08-12T15:08:07;4.30;;;2.67;;
40637;SDS011;26336;44.696;10.622;2023-08-12T15:11:22;3.58;;;2.60;;
40637;SDS011;26336;44.696;10.622;2023-08-12T15:14:53;3.50;;;2.50;;
40637;SDS011;26336;44.696;10.622;2023-08-12T15:18:03;3.22;;;2.92;;
40637;SDS011;26336;44.696;10.622;2023-08-12T15:21:08;22.63;;;18.50;;
40637;SDS011;26336;44.696;10.622;2023-08-12T15:24:12;4.10;;;2.90;;
40637;SDS011;26336;44.696;10.622;2023-08-12T15:27:16;5.30;;;2.75;;
40637;SDS011;26336;44.696;10.622;2023-08-12T15:30:23;4.10;;;2.97;;
40637;SDS011;26336;44.696;10.622;2023-08-12T15:33:27;2.92;;;2.20;;
40637;SDS011;26336;44.696;10.622;2023-08-12T15:36:32;4.00;;;2.97;;
40637;SDS011;26336;44.696;10.622;2023-08-12T15:39:38;4.35;;;3.00;;
40637;SDS011;26336;44.696;10.622;2023-08-12T15:42:43;4.68;;;3.30;;
40637;SDS011;26336;44.696;10.622;2023-08-12T15:45:49;2.97;;;2.67;;
40637;SDS011;26336;44.696;10.622;2023-08-12T15:48:59;4.63;;;3.25;;
40637;SDS011;26336;44.696;10.622;2023-08-12T15:52:03;4.43;;;2.90;;
40637;SDS011;26336;44.696;10.622;2023-08-12T15:55:13;3.80;;;2.95;;
40637;SDS011;26336;44.696;10.622;2023-08-12T15:58:17;4.22;;;2.75;;
40637;SDS011;26336;44.696;10.622;2023-08-12T16:01:27;4.57;;;2.35;;
40637;SDS011;26336;44.696;10.622;2023-08-12T16:04:41;3.63;;;2.20;;
40637;SDS011;26336;44.696;10.622;2023-08-12T16:07:46;3.75;;;2.50;;
40637;SDS011;26336;44.696;10.622;2023-08-12T16:10:50;3.92;;;2.47;;
40637;SDS011;26336;44.696;10.622;2023-08-12T16:13:54;3.17;;;2.00;;
40637;SDS011;26336;44.696;10.622;2023-08-12T16:16:58;5.35;;;2.53;;
40637;SDS011;26336;44.696;10.622;2023-08-12T16:20:05;6.25;;;2.80;;
40637;SDS011;26336;44.696;10.622;2023-08-12T16:23:17;3.03;;;2.25;;
40637;SDS011;26336;44.696;10.622;2023-08-12T16:26:21;3.45;;;2.40;;
40637;SDS011;26336;44.696;10.622;2023-08-12T16:29:26;6.15;;;2.70;;
40637;SDS011;26336;44.696;10.622;2023-08-12T16:32:34;4.43;;;2.45;;
40637;SDS011;26336;44.696;10.622;2023-08-12T16:35:38;3.75;;;2.20;;
40637;SDS011;26336;44.696;10.622;2023-08-12T16:38:42;2.90;;;2.30;;
40637;SDS011;26336;44.696;10.622;2023-08-12T16:42:00;3.83;;;2.42;;
40637;SDS011;26336;44.696;10.622;2023-08-12T16:45:07;3.15;;;2.50;;
40637;SDS011;26336;44.696;10.622;2023-08-12T16:48:13;2.47;;;2.28;;
40637;SDS011;26336;44.696;10.622;2023-08-12T16:51:40;4.03;;;2.38;;
40637;SDS011;26336;44.696;10.622;2023-08-12T16:54:50;6.55;;;2.75;;
40637;SDS011;26336;44.696;10.622;2023-08-12T16:57:59;3.70;;;2.67;;
40637;SDS011;26336;44.696;10.622;2023-08-12T17:01:11;9.85;;;2.63;;
40637;SDS011;26336;44.696;10.622;2023-08-12T17:04:17;5.15;;;2.40;;
40637;SDS011;26336;44.696;10.622;2023-08-12T17:07:21;5.00;;;2.28;;
40637;SDS011;26336;44.696;10.622;2023-08-12T17:10:33;2.80;;;2.45;;
40637;SDS011;26336;44.696;10.622;2023-08-12T17:13:47;3.58;;;2.25;;
40637;SDS011;26336;44.696;10.622;2023-08-12T17:16:51;3.13;;;2.60;;
40637;SDS011;26336;44.696;10.622;2023-08-12T17:19:55;5.20;;;2.53;;
40637;SDS011;26336;44.696;10.622;2023-08-12T17:23:06;2.88;;;2.33;;
40637;SDS011;26336;44.696;10.622;2023-08-12T17:26:14;5.25;;;2.65;;
40637;SDS011;26336;44.696;10.622;2023-08-12T17:29:19;8.98;;;2.95;;
40637;SDS011;26336;44.696;10.622;2023-08-12T17:32:23;2.60;;;2.38;;
40637;SDS011;26336;44.696;10.622;2023-08-12T17:35:27;6.20;;;2.60;;
40637;SDS011;26336;44.696;10.622;2023-08-12T17:38:32;8.60;;;2.70;;
40637;SDS011;26336;44.696;10.622;2023-08-12T17:41:36;6.10;;;2.63;;
40637;SDS011;26336;44.696;10.622;2023-08-12T17:44:41;3.35;;;2.50;;
40637;SDS011;26336;44.696;10.622;2023-08-12T17:47:56;5.55;;;2.90;;
40637;SDS011;26336;44.696;10.622;2023-08-12T17:51:06;6.38;;;2.58;;
40637;SDS011;26336;44.696;10.622;2023-08-12T17:54:16;5.95;;;2.60;;
40637;SDS011;26336;44.696;10.622;2023-08-12T17:57:19;4.35;;;2.60;;
40637;SDS011;26336;44.696;10.622;2023-08-12T18:00:26;3.85;;;2.88;;
40637;SDS011;26336;44.696;10.622;2023-08-12T18:03:30;7.45;;;2.83;;
40637;SDS011;26336;44.696;10.622;2023-08-12T18:06:35;8.18;;;2.90;;
40637;SDS011;26336;44.696;10.622;2023-08-12T18:09:42;5.82;;;3.00;;
40637;SDS011;26336;44.696;10.622;2023-08-12T18:12:46;4.50;;;2.80;;
40637;SDS011;26336;44.696;10.622;2023-08-12T18:15:50;3.88;;;3.20;;
40637;SDS011;26336;44.696;10.622;2023-08-12T18:18:54;4.22;;;3.10;;
40637;SDS011;26336;44.696;10.622;2023-08-12T18:21:59;6.70;;;3.00;;
40637;SDS011;26336;44.696;10.622;2023-08-12T18:25:03;6.35;;;2.70;;
40637;SDS011;26336;44.696;10.622;2023-08-12T18:28:13;4.97;;;3.05;;
40637;SDS011;26336;44.696;10.622;2023-08-12T18:31:20;4.20;;;2.78;;
40637;SDS011;26336;44.696;10.622;2023-08-12T18:34:24;4.95;;;3.03;;
40637;SDS011;26336;44.696;10.622;2023-08-12T18:37:28;4.15;;;2.60;;
40637;SDS011;26336;44.696;10.622;2023-08-12T18:40:39;3.78;;;2.88;;
40637;SDS011;26336;44.696;10.622;2023-08-12T18:43:43;3.50;;;2.53;;
40637;SDS011;26336;44.696;10.622;2023-08-12T18:46:48;7.18;;;2.90;;
40637;SDS011;26336;44.696;10.622;2023-08-12T18:49:52;4.85;;;2.88;;
40637;SDS011;26336;44.696;10.622;2023-08-12T18:52:56;5.13;;;2.65;;
40637;SDS011;26336;44.696;10.622;2023-08-12T18:56:00;5.07;;;2.47;;
40637;SDS011;26336;44.696;10.622;2023-08-12T18:59:04;7.78;;;3.20;;
40637;SDS011;26336;44.696;10.622;2023-08-12T19:02:08;4.78;;;2.90;;
40637;SDS011;26336;44.696;10.622;2023-08-12T19:05:13;4.78;;;2.72;;
40637;SDS011;26336;44.696;10.622;2023-08-12T19:08:18;4.38;;;2.75;;
40637;SDS011;26336;44.696;10.622;2023-08-12T19:11:22;6.30;;;3.53;;
40637;SDS011;26336;44.696;10.622;2023-08-12T19:14:29;5.82;;;2.85;;
40637;SDS011;26336;44.696;10.622;2023-08-12T19:17:36;2.80;;;2.50;;